createdAt,value
2023-04-14T00:02:22.213Z,73.66
2023-04-14T00:05:24.287Z,73.66
2023-04-14T00:08:25.928Z,73.49
2023-04-14T00:11:27.669Z,73.80
2023-04-14T00:21:10.266Z,73.39
2023-04-14T00:24:12.113Z,73.49
2023-04-14T00:27:13.797Z,73.95
2023-04-14T00:30:16.079Z,73.89
2023-04-14T00:33:17.698Z,73.50
2023-04-14T00:36:19.428Z,73.67
2023-04-14T00:39:21.286Z,73.63
2023-04-14T00:42:23.142Z,73.48
2023-04-14T00:45:24.891Z,73.61
2023-04-14T00:48:26.554Z,73.49
2023-04-14T00:51:28.365Z,73.37
2023-04-14T00:54:30.891Z,73.52
2023-04-14T00:57:32.585Z,73.55
2023-04-14T01:00:34.595Z,73.65
2023-04-14T01:03:36.426Z,73.67
2023-04-14T01:06:38.254Z,73.66
2023-04-14T01:09:39.915Z,73.91
2023-04-14T01:12:59.997Z,73.69
2023-04-14T01:16:05.340Z,73.68
2023-04-14T01:19:41.512Z,74.00
2023-04-14T01:22:49.833Z,74.02
2023-04-14T01:26:13.571Z,73.77
2023-04-14T01:29:36.175Z,73.76
2023-04-14T01:32:44.477Z,73.92
2023-04-14T01:35:50.326Z,74.01
2023-04-14T01:38:53.301Z,73.97
2023-04-14T01:41:57.144Z,73.90
2023-04-14T01:45:04.425Z,73.82
2023-04-14T01:48:06.729Z,73.83
2023-04-14T01:51:09.471Z,73.78
2023-04-14T01:54:11.729Z,73.87
2023-04-14T01:57:14.917Z,73.72
2023-04-14T02:00:20.869Z,73.64
2023-04-14T02:03:23.629Z,73.72
2023-04-14T02:06:25.861Z,73.74
2023-04-14T02:09:28.991Z,73.97
2023-04-14T02:12:30.924Z,73.85
2023-04-14T02:15:33.490Z,73.84
2023-04-14T02:18:35.675Z,74.05
2023-04-14T02:21:38.160Z,73.61
2023-04-14T02:24:39.857Z,74.01
2023-04-14T02:27:53.002Z,73.96
2023-04-14T02:30:56.398Z,74.05
2023-04-14T02:33:59.147Z,74.04
2023-04-14T02:37:04.165Z,74.37
2023-04-14T02:40:16.056Z,74.67
2023-04-14T02:43:20.859Z,74.50
2023-04-14T02:46:23.922Z,74.76
2023-04-14T02:49:25.932Z,74.73
2023-04-14T02:52:28.268Z,74.96
2023-04-14T02:55:31.090Z,74.86
2023-04-14T02:58:33.257Z,74.89
2023-04-14T03:01:35.968Z,75.21
2023-04-14T03:04:38.722Z,75.04
2023-04-14T03:07:42.469Z,74.78
2023-04-14T03:10:45.767Z,74.68
2023-04-14T03:13:49.351Z,74.49
2023-04-14T03:16:53.503Z,74.72
2023-04-14T03:19:56.168Z,74.87
2023-04-14T03:23:01.836Z,74.81
2023-04-14T03:26:03.831Z,75.01
2023-04-14T03:29:05.991Z,74.74
2023-04-14T03:32:09.238Z,74.92
2023-04-14T03:35:11.491Z,74.92
2023-04-14T03:38:15.716Z,74.85
2023-04-14T03:41:18.309Z,74.86
2023-04-14T03:44:20.124Z,75.20
2023-04-14T03:47:21.801Z,75.17
2023-04-14T03:50:27.269Z,75.36
2023-04-14T03:53:33.359Z,75.69
2023-04-14T03:56:35.609Z,75.48
2023-04-14T03:59:39.379Z,75.37
2023-04-14T04:02:42.993Z,75.19
2023-04-14T04:05:45.508Z,74.66
2023-04-14T04:08:48.452Z,74.22
2023-04-14T04:11:52.261Z,74.51
2023-04-14T04:14:53.897Z,74.59
2023-04-14T04:17:55.678Z,75.08
2023-04-14T04:20:57.374Z,75.35
2023-04-14T04:24:00.862Z,75.68
2023-04-14T04:27:02.645Z,75.67
2023-04-14T04:30:08.228Z,75.93
2023-04-14T04:33:10.780Z,76.48
2023-04-14T04:36:13.318Z,76.68
2023-04-14T04:39:15.054Z,76.70
2023-04-14T04:42:16.712Z,76.90
2023-04-14T04:45:20.795Z,76.78
2023-04-14T04:48:22.421Z,76.86
2023-04-14T04:51:23.923Z,76.93
2023-04-14T04:54:25.546Z,77.25
2023-04-14T04:57:27.162Z,77.03
2023-04-14T05:00:28.840Z,76.87
2023-04-14T05:03:30.398Z,77.16
2023-04-14T05:06:35.181Z,77.17
2023-04-14T05:09:37.017Z,77.54
2023-04-14T05:12:38.812Z,77.84
2023-04-14T05:15:40.469Z,77.98
2023-04-14T05:18:43.167Z,78.11
2023-04-14T05:21:44.792Z,78.20
2023-04-14T05:24:52.359Z,78.25
2023-04-14T05:27:54.007Z,78.26
2023-04-14T05:30:55.884Z,78.02
2023-04-14T05:33:57.685Z,78.23
2023-04-14T05:36:59.436Z,78.09
2023-04-14T05:40:01.178Z,78.06
2023-04-14T05:43:02.990Z,78.20
2023-04-14T05:46:04.819Z,78.02
2023-04-14T05:49:06.662Z,77.75
2023-04-14T05:52:08.605Z,77.54
2023-04-14T05:55:10.700Z,77.11
2023-04-14T05:58:12.446Z,76.41
2023-04-14T06:01:14.088Z,76.50
2023-04-14T06:04:15.951Z,76.57
2023-04-14T06:07:17.802Z,75.99
2023-04-14T06:10:19.457Z,75.78
2023-04-14T06:13:21.075Z,75.52
2023-04-14T06:16:22.768Z,74.92
2023-04-14T06:19:24.483Z,74.65
2023-04-14T06:22:26.201Z,74.74
2023-04-14T06:25:27.910Z,74.21
2023-04-14T06:28:29.553Z,74.28
2023-04-14T06:31:31.214Z,73.97
2023-04-14T06:34:32.977Z,73.60
2023-04-14T06:37:34.914Z,72.81
2023-04-14T06:40:36.557Z,72.14
2023-04-14T06:43:38.226Z,72.44
2023-04-14T06:46:39.826Z,72.36
2023-04-14T06:49:41.497Z,71.31
2023-04-14T06:52:43.145Z,69.12
2023-04-14T06:55:44.725Z,69.60
2023-04-14T06:58:46.417Z,69.77
2023-04-14T07:01:48.374Z,69.65
2023-04-14T07:04:50.147Z,68.45
2023-04-14T07:07:51.835Z,67.77
2023-04-14T07:10:59.670Z,67.91
2023-04-14T07:14:01.418Z,67.35
2023-04-14T07:17:03.258Z,68.18
2023-04-14T07:20:05.448Z,66.46
2023-04-14T07:23:07.036Z,64.94
2023-04-14T07:26:08.771Z,63.48
2023-04-14T07:29:10.429Z,64.49
2023-04-14T07:32:12.142Z,63.32
2023-04-14T07:35:14.391Z,63.02
2023-04-14T07:38:16.187Z,63.26
2023-04-14T07:41:18.242Z,62.22
2023-04-14T07:44:20.013Z,63.14
2023-04-14T07:47:21.859Z,62.09
2023-04-14T07:50:23.845Z,59.61
2023-04-14T07:53:26.242Z,59.66
2023-04-14T07:56:27.941Z,62.58
2023-04-14T07:59:29.758Z,61.24
2023-04-14T08:02:31.414Z,59.81
2023-04-14T08:05:33.846Z,57.06
2023-04-14T08:08:35.970Z,55.90
2023-04-14T08:11:37.682Z,58.90
2023-04-14T08:14:39.338Z,59.61
2023-04-14T08:17:41.093Z,57.72
2023-04-14T08:20:42.803Z,57.89
2023-04-14T08:23:44.451Z,57.88
2023-04-14T08:26:46.064Z,59.68
2023-04-14T08:29:49.122Z,60.60
2023-04-14T08:32:50.845Z,54.23
2023-04-14T08:35:59.502Z,56.31
2023-04-14T08:39:02.437Z,56.82
2023-04-14T08:42:04.408Z,50.77
2023-04-14T08:45:06.683Z,54.45
2023-04-14T08:48:08.614Z,54.26
2023-04-14T08:51:19.830Z,50.26
2023-04-14T08:54:21.650Z,48.26
2023-04-14T08:57:25.402Z,48.42
2023-04-14T09:00:27.301Z,47.35
2023-04-14T09:03:29.711Z,47.34
2023-04-14T09:06:32.375Z,46.34
2023-04-14T09:09:34.205Z,48.15
2023-04-14T09:12:36.685Z,45.80
2023-04-14T09:15:38.353Z,45.55
2023-04-14T09:18:40.433Z,46.58
2023-04-14T09:21:53.665Z,42.58
2023-04-14T09:24:57.361Z,42.89
2023-04-14T09:27:59.401Z,43.83
2023-04-14T09:31:01.162Z,44.38
2023-04-14T09:34:03.153Z,42.91
2023-04-14T09:37:07.460Z,42.92
2023-04-14T09:40:09.508Z,41.77
2023-04-14T09:43:27.442Z,40.38
2023-04-14T09:46:29.194Z,39.70
2023-04-14T09:49:31.369Z,41.25
2023-04-14T09:52:41.866Z,40.74
2023-04-14T09:55:45.607Z,42.26
2023-04-14T09:58:48.598Z,40.29
2023-04-14T10:01:50.412Z,40.73
2023-04-14T10:05:03.950Z,40.74
2023-04-14T10:08:06.000Z,41.83
2023-04-14T10:11:23.586Z,42.13
2023-04-14T10:14:25.196Z,42.92
2023-04-14T10:17:29.506Z,42.25
2023-04-14T10:20:32.421Z,42.28
2023-04-14T10:23:36.754Z,42.16
2023-04-14T10:26:38.597Z,40.33
2023-04-14T10:29:41.125Z,41.24
2023-04-14T10:32:44.934Z,42.20
2023-04-14T10:35:48.631Z,43.85
2023-04-14T10:38:50.269Z,40.89
2023-04-14T10:41:53.038Z,42.47
2023-04-14T10:45:04.542Z,43.16
2023-04-14T10:48:06.261Z,41.27
2023-04-14T10:51:09.947Z,41.64
2023-04-14T10:54:18.403Z,41.83
2023-04-14T10:57:24.672Z,42.70
2023-04-14T11:00:28.092Z,42.95
2023-04-14T11:03:44.469Z,37.35
2023-04-14T11:06:46.346Z,38.19
2023-04-14T11:09:49.181Z,39.73
2023-04-14T11:13:26.618Z,41.04
2023-04-14T11:16:29.175Z,38.58
2023-04-14T11:19:32.243Z,39.45
2023-04-14T11:22:38.110Z,41.10
2023-04-14T11:25:39.794Z,41.29
2023-04-14T11:28:43.063Z,42.37
2023-04-14T11:31:44.859Z,41.73
2023-04-14T11:34:46.629Z,41.66
2023-04-14T11:37:48.486Z,43.47
2023-04-14T11:40:51.161Z,42.71
2023-04-14T11:43:52.715Z,42.49
2023-04-14T11:46:54.533Z,42.39
2023-04-14T11:49:56.352Z,41.65
2023-04-14T11:52:59.581Z,41.24
2023-04-14T11:56:01.214Z,42.29
2023-04-14T11:59:05.023Z,41.23
2023-04-14T12:02:11.844Z,40.38
2023-04-14T12:05:19.705Z,42.06
2023-04-14T12:08:23.847Z,41.71
2023-04-14T12:11:25.830Z,42.05
2023-04-14T12:14:27.651Z,41.24
2023-04-14T12:17:30.204Z,39.30
2023-04-14T12:21:02.194Z,41.37
2023-04-14T12:24:03.984Z,41.74
2023-04-14T12:27:06.825Z,42.71
2023-04-14T12:30:08.898Z,43.61
2023-04-14T12:33:11.661Z,44.12
2023-04-14T12:36:13.528Z,42.78
2023-04-14T12:39:15.198Z,44.18
2023-04-14T12:42:16.834Z,43.82
2023-04-14T12:45:18.430Z,43.60
2023-04-14T12:48:20.317Z,43.39
2023-04-14T12:51:24.448Z,38.88
2023-04-14T12:54:26.235Z,37.22
2023-04-14T12:57:27.822Z,38.43
2023-04-14T13:00:29.521Z,40.81
2023-04-14T13:03:41.712Z,40.99
2023-04-14T13:06:43.521Z,41.72
2023-04-14T13:09:45.144Z,41.26
2023-04-14T13:12:46.765Z,41.61
2023-04-14T13:16:12.447Z,41.95
2023-04-14T13:19:10.009Z,42.22
2023-04-14T13:22:13.789Z,42.30
2023-04-14T13:25:15.537Z,41.84
2023-04-14T13:28:17.284Z,41.83
2023-04-14T13:31:18.939Z,42.07
2023-04-14T13:34:20.607Z,42.75
2023-04-14T13:37:22.283Z,42.86
2023-04-14T13:40:23.913Z,43.19
2023-04-14T13:43:25.578Z,43.30
2023-04-14T13:46:27.234Z,44.11
2023-04-14T13:49:28.860Z,44.17
2023-04-14T13:52:30.542Z,44.89
2023-04-14T13:55:32.214Z,45.14
2023-04-14T13:58:33.826Z,45.19
2023-04-14T14:01:35.565Z,45.63
2023-04-14T14:04:37.584Z,45.86
2023-04-14T14:07:39.415Z,46.15
2023-04-14T14:10:41.386Z,45.70
2023-04-14T14:13:43.102Z,44.99
2023-04-14T14:16:44.792Z,44.94
2023-04-14T14:19:46.489Z,46.04
2023-04-14T14:22:48.151Z,46.33
2023-04-14T14:25:49.812Z,45.96
2023-04-14T14:28:51.524Z,46.35
2023-04-14T14:31:53.516Z,46.10
2023-04-14T14:34:55.235Z,46.36
2023-04-14T14:37:58.405Z,45.94
2023-04-14T14:41:00.672Z,46.03
2023-04-14T14:44:02.364Z,46.32
2023-04-14T14:47:04.875Z,46.42
2023-04-14T14:50:08.689Z,46.41
2023-04-14T14:53:10.540Z,46.68
2023-04-14T14:56:12.269Z,46.80
2023-04-14T14:59:13.874Z,47.12
2023-04-14T15:02:15.618Z,47.19
2023-04-14T15:05:17.543Z,47.38
2023-04-14T15:08:19.546Z,47.51
2023-04-14T15:11:21.112Z,47.33
2023-04-14T15:14:23.992Z,47.40
2023-04-14T15:17:25.650Z,47.24
2023-04-14T15:20:27.289Z,47.49
2023-04-14T15:23:29.009Z,47.54
2023-04-14T15:26:30.645Z,47.45
2023-04-14T15:29:32.318Z,47.63
2023-04-14T15:32:33.968Z,47.93
2023-04-14T15:35:37.606Z,47.89
2023-04-14T15:38:41.317Z,47.85
2023-04-14T15:41:43.193Z,48.07
2023-04-14T15:44:44.840Z,48.27
2023-04-14T15:47:46.535Z,48.77
2023-04-14T15:50:48.199Z,48.63
2023-04-14T15:53:51.695Z,48.99
2023-04-14T15:56:53.537Z,49.09
2023-04-14T15:59:55.189Z,49.26
2023-04-14T16:02:57.230Z,49.44
2023-04-14T16:06:01.354Z,49.58
2023-04-14T16:09:03.569Z,49.80
2023-04-14T16:12:05.691Z,49.75
2023-04-14T16:15:07.919Z,49.95
2023-04-14T16:18:09.612Z,50.18
2023-04-14T16:21:11.440Z,50.39
2023-04-14T16:24:13.063Z,50.46
2023-04-14T16:27:14.680Z,50.61
2023-04-14T16:30:16.341Z,50.81
2023-04-14T16:33:18.049Z,50.91
2023-04-14T16:36:19.841Z,51.20
2023-04-14T16:39:21.508Z,51.38
2023-04-14T16:42:24.238Z,51.53
2023-04-14T16:45:25.884Z,51.74
2023-04-14T16:48:27.766Z,51.84
2023-04-14T16:51:29.674Z,52.02
2023-04-14T16:54:31.289Z,52.06
2023-04-14T16:57:32.937Z,52.29
2023-04-14T17:00:34.810Z,52.49
2023-04-14T17:03:39.618Z,52.56
2023-04-14T17:06:41.288Z,52.70
2023-04-14T17:09:43.120Z,52.73
2023-04-14T17:12:44.714Z,53.00
2023-04-14T17:15:47.098Z,53.40
2023-04-14T17:18:51.049Z,53.58
2023-04-14T17:21:52.783Z,53.61
2023-04-14T17:24:54.865Z,53.95
2023-04-14T17:27:56.438Z,53.98
2023-04-14T17:30:58.208Z,54.24
2023-04-14T17:34:00.181Z,54.48
2023-04-14T17:37:02.550Z,54.80
2023-04-14T17:40:04.697Z,55.09
2023-04-14T17:43:06.298Z,55.31
2023-04-14T17:46:08.697Z,55.50
2023-04-14T17:49:10.592Z,55.86
2023-04-14T17:52:12.290Z,56.27
2023-04-14T17:55:14.013Z,56.85
2023-04-14T17:58:15.846Z,56.93
2023-04-14T18:01:19.746Z,57.35
2023-04-14T18:04:21.730Z,58.43
2023-04-14T18:07:23.350Z,58.89
2023-04-14T18:10:25.019Z,60.36
2023-04-14T18:13:26.667Z,61.05
2023-04-14T18:16:28.400Z,61.40
2023-04-14T18:19:30.025Z,61.59
2023-04-14T18:22:35.657Z,61.06
2023-04-14T18:28:41.976Z,61.34
2023-04-14T18:31:43.725Z,61.49
2023-04-14T18:34:45.533Z,61.85
2023-04-14T18:37:47.622Z,61.53
2023-04-14T18:40:49.361Z,61.17
2023-04-14T18:43:51.034Z,61.20
2023-04-14T18:46:52.679Z,60.90
2023-04-14T18:49:54.536Z,61.46
2023-04-14T18:52:56.128Z,61.82
2023-04-14T18:55:57.992Z,61.67
2023-04-14T18:58:59.952Z,61.87
2023-04-14T19:02:02.216Z,61.90
2023-04-14T19:05:04.468Z,61.97
2023-04-14T19:08:06.390Z,62.27
2023-04-14T19:11:08.120Z,62.06
2023-04-14T19:14:09.733Z,61.95
2023-04-14T19:17:11.642Z,62.41
2023-04-14T19:20:13.453Z,62.42
2023-04-14T19:23:15.085Z,62.51
2023-04-14T19:26:16.976Z,62.80
2023-04-14T19:29:18.559Z,63.03
2023-04-14T19:32:20.230Z,62.61
2023-04-14T19:35:21.937Z,63.18
2023-04-14T19:38:26.739Z,62.89
2023-04-14T19:41:28.495Z,62.86
2023-04-14T19:44:30.210Z,62.82
2023-04-14T19:47:31.902Z,62.85
2023-04-14T19:50:33.621Z,63.48
2023-04-14T19:53:35.365Z,63.73
2023-04-14T19:56:37.764Z,64.93
2023-04-14T19:59:39.720Z,64.72
2023-04-14T20:02:41.620Z,65.10
2023-04-14T20:05:43.332Z,65.93
2023-04-14T20:08:45.643Z,65.95
2023-04-14T20:11:47.319Z,65.40
2023-04-14T20:14:48.888Z,66.23
2023-04-14T20:17:50.723Z,66.34
2023-04-14T20:20:52.300Z,66.82
2023-04-14T20:23:53.949Z,67.50
2023-04-14T20:26:55.568Z,67.34
2023-04-14T20:29:57.415Z,67.63
2023-04-14T20:33:00.900Z,68.00
2023-04-14T20:36:02.726Z,67.50
2023-04-14T20:39:05.396Z,67.66
2023-04-14T20:42:06.987Z,67.28
2023-04-14T20:45:09.005Z,66.76
2023-04-14T20:48:10.587Z,66.96
2023-04-14T20:51:12.266Z,67.76
2023-04-14T20:54:16.176Z,68.03
2023-04-14T20:57:17.865Z,68.75
2023-04-14T21:00:19.581Z,68.28
2023-04-14T21:03:21.337Z,69.23
2023-04-14T21:06:23.491Z,69.13
2023-04-14T21:09:25.187Z,70.11
2023-04-14T21:12:35.243Z,70.15
2023-04-14T21:15:52.077Z,70.53
2023-04-14T21:18:58.886Z,70.26
2023-04-14T21:22:00.668Z,69.88
2023-04-14T21:25:02.430Z,70.80
2023-04-14T21:28:04.326Z,70.74
2023-04-14T21:31:06.579Z,69.95
2023-04-14T21:34:08.415Z,69.98
2023-04-14T21:37:10.533Z,70.04
2023-04-14T21:40:12.561Z,69.65
2023-04-14T21:43:14.242Z,69.38
2023-04-14T21:46:16.006Z,70.76
2023-04-14T21:49:17.875Z,70.19
2023-04-14T21:52:19.499Z,70.95
2023-04-14T21:55:21.101Z,70.36
2023-04-14T21:58:22.852Z,69.96
2023-04-14T22:01:24.822Z,69.78
2023-04-14T22:04:35.838Z,69.59
2023-04-14T22:07:38.830Z,69.48
2023-04-14T22:10:40.491Z,69.45
2023-04-14T22:13:42.303Z,69.29
2023-04-14T22:16:44.112Z,69.28
2023-04-14T22:19:45.701Z,69.26
2023-04-14T22:22:47.615Z,69.31
2023-04-14T22:25:49.214Z,69.29
2023-04-14T22:28:51.006Z,69.33
2023-04-14T22:31:52.779Z,69.27
2023-04-14T22:34:54.653Z,69.32
2023-04-14T22:37:56.521Z,69.39
2023-04-14T22:40:58.314Z,69.46
2023-04-14T22:44:00.144Z,69.38
2023-04-14T22:47:01.883Z,69.41
2023-04-14T22:50:03.616Z,69.46
2023-04-14T22:53:05.694Z,69.60
2023-04-14T22:56:07.440Z,69.54
2023-04-14T22:59:09.031Z,69.46
2023-04-14T23:02:10.947Z,69.51
2023-04-14T23:05:13.171Z,69.39
2023-04-14T23:08:14.884Z,69.38
2023-04-14T23:11:19.158Z,69.33
2023-04-14T23:14:22.121Z,69.33
2023-04-14T23:17:23.804Z,69.28
2023-04-14T23:20:25.507Z,69.17
2023-04-14T23:23:30.336Z,69.19
2023-04-14T23:26:32.072Z,69.40
2023-04-14T23:29:33.701Z,69.33
2023-04-14T23:32:35.376Z,69.40
2023-04-14T23:35:37.105Z,69.75
2023-04-14T23:38:38.742Z,69.77
2023-04-14T23:41:40.436Z,69.55
2023-04-14T23:44:42.302Z,69.29
2023-04-14T23:47:43.971Z,69.06
2023-04-14T23:51:00.375Z,68.86
2023-04-14T23:54:07.160Z,68.57
2023-04-14T23:57:08.974Z,68.43
